Motley, Alabama
Current Conditions -  °F | °C
As of 9:55 AM on Thursday 27 Nov 2014 (Local Time) from KLGC Reporting Station
Overcast Overcast  
Wind Chill: 50°   Ceiling: 3900
Heat Index: 50°   Visibility: 10mi
Dew Point: 32°   Wind: 9mph
Humidity: 50%   Direction: 330°NNW
Pressure: 30.33"   Gusts: 22mph
Location:  33.1661°N, 85.5111°W
Report Text: KLGC 271555Z AUTO 33008G19KT 300V360 10SM OVC039 10/00 A3033 RMK AO2 T01010000
Loading
Personal Weather Stations






























Interactive Weather Map New forecast layout! Learn more

10-Day Weather Forecast

Advertisements
Track Severe Weather on mobile